Latest Weather Observations for Forrest

IDW60801

Issued at 10:05 pm WST Thursday 30 October 2014 (issued every 30 minutes, with the page automatically refreshed every 10 minutes)

About weather observations | Map of weather stations | Latest weather observations for WA | Other Formats
Station Details ID: 011052 Name: FORREST Lat: -30.85 Lon: 128.11 Height: 159.0 m
Data from the previous 72 hours. | See also: Recent months at Forrest
Date/Time
WST
Temp
°C
App
Temp
°C
Dew
Point
Rel
Hum
%
Delta-T
°C
Wind Press
QNH
hPa
Press
MSL
hPa
Rain
since 9 am
mm
Dir
 
Spd
km/h
Gust
km/h
Spd
kts
Gust
kts
30/10:00pm 21.3 19.6 13.7 62 4.4 SE 15 19 8 10 1008.1 - 0.0
30/09:30pm 21.9 19.4 14.0 61 4.6 SE 20 26 11 14 1008.5 - 0.0
30/09:00pm 22.4 20.0 13.7 58 5.1 SE 19 24 10 13 1009.2 1008.9 0.0
30/08:30pm 22.8 19.8 13.6 56 5.4 SSE 22 33 12 18 1009.1 - 0.0
30/08:00pm 23.8 20.3 13.4 52 6.1 SSE 24 33 13 18 1008.9 - 0.0
30/07:30pm 24.8 20.8 13.0 47 6.9 SE 26 57 14 31 1008.5 - 0.0
30/07:24pm 24.4 20.2 13.6 51 6.4 SSE 28 57 15 31 1008.4 - 0.0
30/07:23pm 24.1 17.5 12.7 49 6.6 S 39 57 21 31 1008.8 - 0.0
30/07:18pm 24.6 17.9 13.5 50 6.5 SSW 41 50 22 27 1009.6 - 0.0
30/07:16pm 25.0 20.7 12.2 44 7.4 S 26 41 14 22 1009.2 - 0.0
30/07:00pm 24.7 20.9 12.3 46 7.2 ESE 24 35 13 19 1007.2 - 0.0
30/06:30pm 25.4 21.1 11.9 43 7.8 ESE 26 33 14 18 1007.0 - 0.0
30/06:00pm 25.6 21.3 12.1 43 7.8 ESE 26 35 14 19 1006.6 1006.3 0.0
30/05:30pm 26.4 20.5 12.5 42 8.1 SE 35 44 19 24 1006.4 - 0.0
30/05:00pm 28.9 23.4 11.9 35 9.9 SE 32 46 17 25 1006.3 - 0.0
30/04:41pm 30.4 25.1 9.8 28 11.7 SE 28 46 15 25 1006.3 - 0.0
30/04:30pm 30.5 25.6 9.9 28 11.7 SSE 26 33 14 18 1006.4 - 0.0
30/04:00pm 29.8 25.0 10.4 30 11.1 SSE 26 41 14 22 1006.5 - 0.0
30/03:30pm 31.0 27.4 10.4 28 11.9 SSE 20 33 11 18 1006.4 - 0.0
30/03:00pm 35.5 32.8 7.5 18 15.8 N 11 19 6 10 1006.2 1005.9 0.0
30/02:30pm 36.0 32.7 8.0 18 15.9 WNW 15 24 8 13 1006.5 - 0.0
30/02:00pm 34.9 31.9 7.9 19 15.2 NE 13 19 7 10 1007.0 - 0.0
30/01:30pm 35.2 32.3 8.1 19 15.3 N 13 24 7 13 1007.6 - 0.0
30/01:00pm 34.1 30.4 8.0 20 14.7 NNW 17 28 9 15 1008.3 - 0.0
30/12:30pm 34.6 31.2 7.6 19 15.1 NNW 15 24 8 13 1009.1 - 0.0
30/12:00pm 34.1 31.6 8.0 20 14.7 N 11 19 6 10 1009.5 1009.2 0.0
30/11:30am 33.0 30.8 7.8 21 14.0 N 9 17 5 9 1009.9 - 0.0
30/11:00am 32.8 30.1 8.9 23 13.5 NNE 13 20 7 11 1009.2 - 0.0
30/10:30am 32.6 28.6 8.1 22 13.7 NW 19 26 10 14 1010.5 - 0.0
30/10:00am 33.1 29.2 8.5 22 13.9 WNW 19 26 10 14 1011.1 - 0.0
30/09:30am 30.1 26.6 7.3 24 12.4 W 15 20 8 11 1011.9 - 0.0
30/09:00am 28.3 24.2 6.4 25 11.6 W 17 22 9 12 1012.3 1012.0 0.0
30/08:30am 26.8 22.8 5.1 25 11.2 NW 15 20 8 11 1012.6 - 0.0
30/08:00am 26.4 22.3 4.2 24 11.2 NNW 15 20 8 11 1012.9 - 0.0
30/07:30am 25.8 20.8 3.7 24 11.0 NNE 19 22 10 12 1012.2 - 0.0
30/07:00am 23.5 18.7 2.4 25 10.1 NNE 17 22 9 12 1012.4 - 0.0
30/06:30am 22.1 17.3 2.8 28 9.2 NNE 17 20 9 11 1012.8 - 0.0
30/06:00am 20.9 16.5 2.7 30 8.6 NE 15 19 8 10 1012.5 1012.2 0.0
30/05:30am 19.9 15.8 2.3 31 8.2 NNE 13 17 7 9 1012.7 - 0.0
30/05:00am 18.9 15.2 2.3 33 7.7 NNE 11 13 6 7 1012.7 - 0.0
30/04:30am 18.5 14.0 2.4 34 7.4 NE 15 19 8 10 1012.5 - 0.0
30/04:00am 18.6 14.1 2.0 33 7.6 NE 15 17 8 9 1012.5 - 0.0
30/03:30am 18.4 14.2 1.9 33 7.5 NE 13 13 7 7 1012.3 - 0.0
30/03:00am 18.9 15.5 1.9 32 7.8 NNE 9 11 5 6 1012.4 1012.1 0.0
30/02:30am 19.2 14.3 2.1 32 7.9 NE 17 17 9 9 1012.3 - 0.0
30/02:00am 19.2 15.1 2.1 32 7.9 NNE 13 15 7 8 1012.7 - 0.0
30/01:30am 19.3 15.2 2.2 32 7.9 NE 13 15 7 8 1012.8 - 0.0
30/01:00am 19.4 15.2 1.4 30 8.2 E 13 15 7 8 1013.3 - 0.0
30/12:30am 19.9 16.0 1.4 29 8.5 NE 11 15 6 8 1013.4 - 0.0
30/12:00am 20.2 15.9 1.1 28 8.7 ENE 13 15 7 8 1013.5 1013.2 0.0
 
Date/Time
WST
Temp
°C
App
Temp
°C
Dew
Point
Rel
Hum
%
Delta-T
°C
Wind Press
QNH
hPa
Press
MSL
hPa
Rain
since 9 am
mm
Dir
 
Spd
km/h
Gust
km/h
Spd
kts
Gust
kts
29/11:30pm 20.2 15.8 0.6 27 8.8 ENE 13 15 7 8 1013.7 - 0.0
29/11:00pm 21.0 16.6 0.2 25 9.4 ENE 13 17 7 9 1014.0 - 0.0
29/10:30pm 21.7 17.0 0.8 25 9.6 ENE 15 19 8 10 1014.0 - 0.0
29/10:00pm 22.1 17.2 2.2 27 9.4 E 17 20 9 11 1014.1 - 0.0
29/09:30pm 22.3 17.9 2.9 28 9.3 E 15 17 8 9 1014.2 - 0.0
29/09:00pm 23.1 18.4 3.1 27 9.7 E 17 20 9 11 1014.6 1014.3 0.0
29/08:30pm 24.2 19.0 3.5 26 10.2 E 20 26 11 14 1014.7 - 0.0
29/08:00pm 24.8 19.8 4.5 27 10.2 E 20 26 11 14 1014.4 - 0.0
29/07:30pm 25.2 20.3 4.3 26 10.5 E 19 22 10 12 1014.2 - 0.0
29/07:00pm 26.5 21.3 3.7 23 11.4 E 20 24 11 13 1014.2 - 0.0
29/06:30pm 27.3 21.7 3.7 22 11.9 ESE 22 28 12 15 1014.2 - 0.0
29/06:00pm 28.3 23.3 4.6 22 12.2 ESE 20 26 11 14 1013.9 1013.6 0.0
29/05:30pm 30.1 28.3 1.5 16 14.1 CALM 0 4 0 2 1013.6 - 0.0
29/05:00pm 31.1 29.2 0.5 14 15.0 CALM 0 6 0 3 1013.5 - 0.0
29/04:30pm 31.7 29.1 1.0 14 15.2 WSW 4 7 2 4 1013.4 - 0.0
29/04:00pm 31.9 28.8 1.1 14 15.3 W 7 11 4 6 1013.4 - 0.0
29/03:30pm 31.9 28.8 1.1 14 15.3 SSW 7 15 4 8 1013.3 - 0.0
29/03:00pm 32.2 28.2 0.3 13 15.7 W 11 15 6 8 1013.2 1012.9 0.0
29/02:30pm 32.3 27.9 0.4 13 15.7 WSW 13 19 7 10 1013.3 - 0.0
29/02:00pm 32.3 28.7 0.4 13 15.7 W 9 15 5 8 1013.3 - 0.0
29/01:30pm 33.2 29.3 1.1 13 16.1 WNW 11 17 6 9 1013.4 - 0.0
29/01:00pm 32.5 29.1 1.6 14 15.5 SSW 9 15 5 8 1013.8 - 0.0
29/12:30pm 32.2 28.3 1.3 14 15.4 W 11 17 6 9 1014.1 - 0.0
29/12:00pm 32.1 28.6 1.3 14 15.4 N 9 15 5 8 1014.4 1014.1 0.0
29/11:30am 31.9 27.6 1.1 14 15.3 E 13 22 7 12 1014.7 - 0.0
29/11:00am 30.9 26.6 1.3 15 14.6 NNE 13 20 7 11 1015.1 - 0.0
29/10:30am 30.4 25.2 2.6 17 14.0 ENE 19 26 10 14 1015.6 - 0.0
29/10:00am 29.2 24.5 3.2 19 13.1 NE 17 30 9 16 1016.1 - 0.0
29/09:30am 28.2 22.8 4.5 22 12.2 E 22 32 12 17 1016.2 - 0.0
29/09:00am 26.1 20.9 5.7 27 10.6 ENE 22 30 12 16 1016.8 1016.6 0.0
29/08:30am 24.4 18.9 5.7 30 9.6 ENE 24 32 13 17 1017.2 - 0.0
29/08:00am 22.8 17.2 5.3 32 8.8 ENE 24 30 13 16 1017.3 - 0.0
29/07:30am 20.7 15.4 5.1 36 7.7 E 22 28 12 15 1017.8 - 0.0
29/07:00am 19.1 14.0 7.5 47 5.9 ENE 24 32 13 17 1017.7 - 0.0
29/06:30am 17.3 13.0 9.2 59 4.2 ENE 22 28 12 15 1017.7 - 0.0
29/06:00am 14.9 11.6 9.7 71 2.7 ENE 17 20 9 11 1017.8 1017.6 0.0
29/05:30am 13.3 10.4 9.5 78 2.0 E 15 17 8 9 1017.8 - 0.0
29/05:00am 12.6 10.0 9.2 80 1.7 E 13 17 7 9 1017.7 - 0.0
29/04:30am 12.7 9.7 9.3 80 1.7 ENE 15 19 8 10 1017.5 - 0.0
29/04:00am 12.6 10.7 9.2 80 1.7 ENE 9 15 5 8 1017.6 - 0.0
29/03:30am 12.3 9.2 9.0 80 1.7 ENE 15 17 8 9 1017.4 - 0.0
29/03:00am 12.4 10.1 9.1 80 1.7 E 11 13 6 7 1017.7 1017.5 0.0
29/02:30am 12.5 9.8 9.0 79 1.8 ENE 13 15 7 8 1017.6 - 0.0
29/02:00am 12.5 9.8 9.0 79 1.8 E 13 15 7 8 1017.7 - 0.0
29/01:30am 12.6 9.9 9.1 79 1.8 E 13 15 7 8 1017.5 - 0.0
29/01:00am 13.0 10.3 9.1 77 2.0 E 13 17 7 9 1017.7 - 0.0
29/12:30am 13.4 10.4 9.3 76 2.1 E 15 19 8 10 1017.8 - 0.0
29/12:00am 13.8 10.4 9.0 73 2.4 ESE 17 20 9 11 1017.6 1017.4 0.0
 
Date/Time
WST
Temp
°C
App
Temp
°C
Dew
Point
Rel
Hum
%
Delta-T
°C
Wind Press
QNH
hPa
Press
MSL
hPa
Rain
since 9 am
mm
Dir
 
Spd
km/h
Gust
km/h
Spd
kts
Gust
kts
28/11:30pm 14.1 10.3 9.1 72 2.6 E 19 22 10 12 1017.7 - 0.0
28/11:00pm 14.5 11.1 9.1 70 2.8 ESE 17 20 9 11 1018.1 - 0.0
28/10:30pm 14.9 11.1 9.1 68 3.0 ESE 19 22 10 12 1018.3 - 0.0
28/10:00pm 15.4 11.5 8.6 64 3.5 ESE 19 22 10 12 1018.5 - 0.0
28/09:30pm 16.1 12.0 8.8 62 3.8 ESE 20 26 11 14 1018.5 - 0.0
28/09:00pm 16.8 12.7 8.5 58 4.3 ESE 20 28 11 15 1018.6 1018.3 0.0
28/08:30pm 17.6 12.8 8.7 56 4.6 ESE 24 32 13 17 1018.6 - 0.0
28/08:00pm 18.5 13.2 8.5 52 5.2 ESE 26 35 14 19 1018.8 - 0.0
28/07:30pm 19.4 14.8 8.1 48 5.9 ESE 22 30 12 16 1018.8 - 0.0
28/07:00pm 20.5 15.5 8.2 45 6.4 ESE 24 32 13 17 1018.4 - 0.0
28/06:30pm 21.7 15.1 7.9 41 7.2 ESE 32 41 17 22 1018.1 - 0.0
28/06:00pm 23.3 16.5 7.0 35 8.5 ESE 32 41 17 22 1017.5 1017.3 0.0
28/05:30pm 25.0 18.2 6.7 31 9.6 ESE 32 41 17 22 1017.1 - 0.0
28/05:13pm 26.4 18.8 5.9 27 10.7 SE 35 43 19 23 1016.8 - 0.0
28/05:00pm 28.7 24.2 -0.5 15 13.8 E 13 20 7 11 1016.8 - 0.0
28/04:30pm 28.9 23.6 -0.3 15 13.9 ESE 17 28 9 15 1016.7 - 0.0
28/04:00pm 29.3 24.0 -0.9 14 14.2 E 17 26 9 14 1016.6 - 0.0
28/03:30pm 29.6 25.2 0.2 15 14.1 E 13 20 7 11 1016.8 - 0.0
28/03:00pm 29.3 23.8 0.9 16 13.8 E 19 30 10 16 1016.9 1016.7 0.0
28/02:30pm 29.3 25.0 0.9 16 13.8 ESE 13 24 7 13 1017.0 - 0.0
28/02:00pm 29.4 25.1 1.0 16 13.8 NE 13 26 7 14 1017.3 - 0.0
28/01:30pm 28.4 23.3 1.0 17 13.3 ESE 17 24 9 13 1017.8 - 0.0
28/01:00pm 28.5 24.0 1.9 18 13.1 ENE 15 28 8 15 1018.3 - 0.0
28/12:30pm 27.6 23.9 2.6 20 12.4 SW 11 17 6 9 1018.8 - 0.0
28/12:00pm 27.7 22.5 2.7 20 12.4 E 19 24 10 13 1019.3 1019.0 0.0
28/11:30am 26.3 22.3 2.9 22 11.5 NE 13 20 7 11 1019.8 - 0.0
28/11:00am 25.3 21.8 3.3 24 10.9 E 11 22 6 12 1020.1 - 0.0
28/10:30am 25.5 21.1 4.6 26 10.6 ENE 17 22 9 12 1020.5 - 0.0
28/10:00am 23.9 19.7 3.8 27 9.9 ENE 15 24 8 13 1021.1 - 0.0
28/09:30am 23.4 19.4 4.9 30 9.3 ENE 15 24 8 13 1021.5 - 0.0
28/09:00am 22.0 18.0 5.0 33 8.4 E 15 24 8 13 1022.0 1021.8 0.0
28/08:30am 21.4 17.2 5.7 36 7.9 E 17 24 9 13 1022.2 - 0.0
28/08:00am 19.6 15.4 5.6 40 6.9 E 17 24 9 13 1022.2 - 0.0
28/07:30am 18.4 14.3 6.3 45 6.0 ENE 17 20 9 11 1022.3 - 0.0
28/07:00am 16.8 13.0 7.7 55 4.6 NE 17 20 9 11 1022.2 - 0.0
28/06:30am 14.6 10.4 8.3 66 3.2 NE 20 24 11 13 1022.1 - 0.0
28/06:00am 12.5 9.7 8.4 76 2.0 NE 13 19 7 10 1021.7 1021.4 0.0
28/05:30am 10.4 8.4 6.9 79 1.7 NE 7 9 4 5 1021.7 - 0.0
28/05:00am 8.3 5.6 5.8 84 1.1 E 9 9 5 5 1021.5 - 0.0
28/04:30am 8.0 4.9 5.6 85 1.1 E 11 13 6 7 1021.2 - 0.0
28/04:00am 8.3 5.7 5.9 85 1.1 E 9 11 5 6 1021.1 - 0.0
28/03:30am 8.6 6.0 6.1 84 1.2 E 9 13 5 7 1020.7 - 0.0
28/03:00am 9.1 6.2 6.4 83 1.3 ESE 11 13 6 7 1020.7 1020.4 0.0
28/02:30am 9.2 6.3 6.3 82 1.4 E 11 13 6 7 1020.7 - 0.0
28/02:00am 9.5 6.6 6.6 82 1.4 E 11 13 6 7 1020.9 - 0.0
28/01:30am 10.0 7.6 6.9 81 1.5 E 9 9 5 5 1021.0 - 0.0
28/01:00am 10.4 8.0 6.9 79 1.7 ENE 9 11 5 6 1021.1 - 0.0
28/12:30am 11.2 8.5 7.5 78 1.8 E 11 13 6 7 1021.4 - 0.0
28/12:00am 11.8 8.5 7.9 77 1.9 E 15 17 8 9 1021.6 1021.3 0.0
 
Date/Time
WST
Temp
°C
App
Temp
°C
Dew
Point
Rel
Hum
%
Delta-T
°C
Wind Press
QNH
hPa
Press
MSL
hPa
Rain
since 9 am
mm
Dir
 
Spd
km/h
Gust
km/h
Spd
kts
Gust
kts
27/11:30pm 11.9 8.9 7.6 75 2.1 E 13 15 7 8 1022.0 - 0.0
27/11:00pm 12.5 9.5 7.8 73 2.3 ESE 13 17 7 9 1022.4 - 0.0
27/10:30pm 12.9 9.6 8.0 72 2.4 SE 15 19 8 10 1022.2 - 0.0

Other Formats:

Comma delimited format used in spreadsheet applications
http://www.bom.gov.au/fwo/IDW60801/IDW60801.95646.axf

JavaScript Object Notation format (JSON) in row-major order
http://www.bom.gov.au/fwo/IDW60801/IDW60801.95646.json